Time;durP1;ratioP1;P1;durP2;ratioP2;P2;SDS_P1;SDS_P2;PMS_P1;PMS_P2;Temp;Humidity;BMP_temperature;BMP_pressure;BME280_temperature;BME280_humidity;BME280_pressure;Samples;Min_cycle;Max_cycle;Signal;HPM_P1;HPM_P2
2023/05/25 00:00:41;;;;;;;4.53;2.17;;;9.80;99.90;;;;;;5047116;28;20037;-71
2023/05/25 00:03:08;;;;;;;5.43;1.83;;;9.80;99.90;;;;;;5037266;28;20037;-70
2023/05/25 00:05:35;;;;;;;7.63;2.53;;;9.90;99.90;;;;;;5065668;28;20045;-70
2023/05/25 00:08:00;;;;;;;7.53;2.95;;;9.80;99.90;;;;;;5053556;28;20056;-70
2023/05/25 00:10:26;;;;;;;9.45;3.10;;;9.70;99.90;;;;;;5054187;28;20044;-70
2023/05/25 00:12:52;;;;;;;8.40;3.35;;;9.70;99.90;;;;;;5054661;28;20496;-70
2023/05/25 00:15:17;;;;;;;8.75;3.00;;;9.70;99.90;;;;;;5054091;28;20084;-71
2023/05/25 00:17:43;;;;;;;5.32;2.10;;;9.60;99.90;;;;;;5053063;28;20056;-70
2023/05/25 00:20:09;;;;;;;3.17;1.55;;;9.60;99.90;;;;;;5054651;28;20163;-70
2023/05/25 00:22:36;;;;;;;3.05;1.20;;;9.70;99.90;;;;;;5050191;28;20037;-70
2023/05/25 00:25:03;;;;;;;1.95;1.10;;;9.70;99.90;;;;;;5050670;28;20401;-69
2023/05/25 00:27:29;;;;;;;1.73;1.00;;;9.70;99.90;;;;;;5047359;28;20116;-70
2023/05/25 00:29:55;;;;;;;1.38;1.00;;;9.60;99.90;;;;;;5070365;28;20053;-70
2023/05/25 00:32:21;;;;;;;1.25;0.90;;;9.70;99.90;;;;;;5046875;28;20041;-70
2023/05/25 00:34:47;;;;;;;1.40;0.90;;;9.70;99.90;;;;;;5033422;28;20043;-70
2023/05/25 00:37:12;;;;;;;1.60;1.13;;;9.70;99.90;;;;;;5041688;28;20041;-70
2023/05/25 00:39:38;;;;;;;1.75;1.10;;;9.70;99.90;;;;;;5053759;28;20045;-70
2023/05/25 00:42:06;;;;;;;1.95;1.00;;;9.70;99.90;;;;;;5053009;28;20041;-70
2023/05/25 00:44:32;;;;;;;2.60;1.40;;;9.60;99.90;;;;;;5068646;28;20493;-70
2023/05/25 00:46:58;;;;;;;2.03;1.25;;;9.50;99.90;;;;;;5052807;28;20047;-70
2023/05/25 00:49:24;;;;;;;3.25;1.27;;;9.50;99.90;;;;;;5053651;28;20041;-71
2023/05/25 00:51:51;;;;;;;2.92;1.30;;;9.40;99.90;;;;;;5064977;28;20044;-70
2023/05/25 00:54:18;;;;;;;3.05;1.20;;;9.40;99.90;;;;;;5045016;28;20033;-70
2023/05/25 00:56:49;;;;;;;3.25;1.30;;;9.30;99.90;;;;;;5053643;28;20039;-70
2023/05/25 00:59:23;;;;;;;1.93;1.13;;;9.30;99.90;;;;;;5041124;28;20044;-70
2023/05/25 01:01:52;;;;;;;3.35;1.35;;;9.30;99.90;;;;;;5058494;28;20189;-70
2023/05/25 01:04:20;;;;;;;6.50;2.08;;;9.20;99.90;;;;;;5036945;28;20350;-70
2023/05/25 01:06:47;;;;;;;5.20;2.22;;;9.10;99.90;;;;;;5035817;28;20116;-70
2023/05/25 01:09:16;;;;;;;3.40;1.50;;;9.00;99.90;;;;;;5054004;28;20043;-70
2023/05/25 01:11:44;;;;;;;4.22;1.98;;;8.90;99.90;;;;;;5047775;28;20452;-70
2023/05/25 01:14:10;;;;;;;1.90;1.00;;;8.90;99.90;;;;;;5034113;28;20048;-70
2023/05/25 01:16:36;;;;;;;3.72;1.60;;;8.90;99.90;;;;;;5051850;28;20781;-70
2023/05/25 01:19:03;;;;;;;4.18;1.60;;;9.00;99.90;;;;;;5068327;28;20044;-69
2023/05/25 01:21:36;;;;;;;3.00;1.65;;;9.00;99.90;;;;;;5051247;28;20029;-70
2023/05/25 01:24:41;;;;;;;2.85;1.83;;;9.00;99.90;;;;;;5049564;28;20099;-70
2023/05/25 01:27:32;;;;;;;3.30;1.70;;;9.00;99.90;;;;;;5006074;28;20037;-70
2023/05/25 01:29:59;;;;;;;2.95;1.67;;;9.00;99.90;;;;;;5036028;28;20052;-70
2023/05/25 01:32:25;;;;;;;4.57;1.48;;;9.00;99.90;;;;;;5051374;28;20045;-70
2023/05/25 01:34:54;;;;;;;2.83;1.20;;;9.00;99.90;;;;;;5043158;28;20041;-70
2023/05/25 01:37:23;;;;;;;3.45;1.50;;;9.00;99.90;;;;;;5050404;28;20071;-69
2023/05/25 01:39:49;;;;;;;6.20;2.63;;;9.00;99.90;;;;;;5032752;28;20442;-70
2023/05/25 01:42:15;;;;;;;6.00;2.88;;;8.90;99.90;;;;;;5038934;28;20040;-70
2023/05/25 01:44:40;;;;;;;4.75;2.20;;;8.70;99.90;;;;;;5051693;28;20056;-70
2023/05/25 01:47:22;;;;;;;4.50;2.25;;;8.70;99.90;;;;;;5042827;28;20433;-70
2023/05/25 01:50:10;;;;;;;4.88;2.03;;;8.60;99.90;;;;;;5032096;28;20131;-69
2023/05/25 01:52:40;;;;;;;4.97;2.45;;;8.50;99.90;;;;;;5067923;28;20045;-70
2023/05/25 01:55:13;;;;;;;4.55;2.15;;;8.50;99.90;;;;;;5050954;28;20486;-70
2023/05/25 01:57:43;;;;;;;4.78;2.10;;;8.60;99.90;;;;;;5039549;28;20045;-70
2023/05/25 02:00:12;;;;;;;4.60;2.25;;;8.60;99.90;;;;;;5033145;28;20036;-70
2023/05/25 02:02:41;;;;;;;4.95;2.20;;;8.60;99.90;;;;;;5039458;28;20044;-69
2023/05/25 02:05:08;;;;;;;4.38;2.40;;;8.50;99.90;;;;;;5050255;28;20030;-70
2023/05/25 02:07:35;;;;;;;7.13;2.50;;;8.40;99.90;;;;;;5043376;28;20057;-69
2023/05/25 02:10:00;;;;;;;4.22;2.00;;;8.40;99.90;;;;;;5050062;28;20036;-70
2023/05/25 02:12:26;;;;;;;3.78;2.00;;;8.40;99.90;;;;;;5042285;28;20498;-69
2023/05/25 02:14:51;;;;;;;3.95;2.00;;;8.40;99.90;;;;;;5034251;28;20111;-69
2023/05/25 02:17:17;;;;;;;4.18;1.90;;;8.40;99.90;;;;;;5044885;28;20040;-70
2023/05/25 02:19:44;;;;;;;4.32;1.88;;;8.40;99.90;;;;;;5046056;28;20091;-70
2023/05/25 02:22:09;;;;;;;5.13;2.00;;;8.40;99.90;;;;;;5042907;28;20102;-70
2023/05/25 02:24:36;;;;;;;5.93;2.28;;;8.40;99.90;;;;;;5031322;28;20091;-69
2023/05/25 02:27:05;;;;;;;5.43;2.95;;;8.30;99.90;;;;;;5041746;28;20504;-70
2023/05/25 02:29:31;;;;;;;5.30;2.40;;;8.30;99.90;;;;;;5039216;28;20057;-70
2023/05/25 02:31:57;;;;;;;6.03;2.83;;;8.30;99.90;;;;;;5036723;28;20397;-69
2023/05/25 02:34:23;;;;;;;5.57;2.75;;;8.20;99.90;;;;;;5051800;28;20052;-70
2023/05/25 02:36:49;;;;;;;3.55;1.70;;;8.20;99.90;;;;;;5066611;28;20041;-70
2023/05/25 02:39:15;;;;;;;4.00;2.03;;;8.30;99.90;;;;;;5035952;28;20378;-70
2023/05/25 02:41:41;;;;;;;4.35;1.98;;;8.30;99.90;;;;;;5034872;28;20047;-70
2023/05/25 02:44:07;;;;;;;3.40;1.63;;;8.30;99.90;;;;;;5049565;28;20542;-69
2023/05/25 02:46:33;;;;;;;3.00;1.48;;;8.30;99.90;;;;;;5049403;28;20116;-70
2023/05/25 02:48:59;;;;;;;3.83;1.92;;;8.20;99.90;;;;;;5043238;28;20041;-70
2023/05/25 02:51:25;;;;;;;3.35;1.92;;;8.20;99.90;;;;;;5051097;28;20044;-71
2023/05/25 02:53:51;;;;;;;3.85;1.95;;;8.30;99.90;;;;;;5066834;28;20124;-70
2023/05/25 02:56:16;;;;;;;4.93;2.20;;;8.20;99.90;;;;;;5033943;28;20120;-70
2023/05/25 02:58:42;;;;;;;4.53;2.42;;;8.10;99.90;;;;;;5030813;28;20041;-70
2023/05/25 03:01:09;;;;;;;5.80;2.60;;;8.10;99.90;;;;;;5039538;28;20086;-70
2023/05/25 03:03:35;;;;;;;4.32;2.45;;;8.10;99.90;;;;;;5052809;28;20087;-70
2023/05/25 03:06:02;;;;;;;5.75;2.60;;;8.10;99.90;;;;;;5051829;28;20041;-71
2023/05/25 03:08:29;;;;;;;6.20;3.08;;;8.00;99.90;;;;;;5049581;28;20505;-70
2023/05/25 03:10:55;;;;;;;5.82;3.10;;;8.00;99.90;;;;;;5032175;28;20041;-70
2023/05/25 03:13:21;;;;;;;8.32;3.00;;;8.00;99.90;;;;;;5031523;28;20496;-70
2023/05/25 03:15:46;;;;;;;5.28;2.63;;;8.00;99.90;;;;;;5058669;28;20099;-70
2023/05/25 03:18:12;;;;;;;5.32;2.83;;;8.00;99.90;;;;;;5034444;28;20037;-69
2023/05/25 03:20:37;;;;;;;6.30;3.33;;;7.90;99.90;;;;;;5051685;28;20516;-69
2023/05/25 03:23:03;;;;;;;5.22;2.72;;;7.90;99.90;;;;;;5049946;28;20059;-70
2023/05/25 03:25:29;;;;;;;6.10;3.33;;;7.90;99.90;;;;;;5034923;28;20045;-70
2023/05/25 03:27:55;;;;;;;5.68;2.90;;;7.70;99.90;;;;;;5045120;28;20049;-70
2023/05/25 03:30:24;;;;;;;5.55;2.58;;;7.60;99.90;;;;;;5051054;28;20079;-69
2023/05/25 03:32:51;;;;;;;6.72;2.50;;;7.50;99.90;;;;;;5040094;28;20505;-69
2023/05/25 03:35:16;;;;;;;4.68;2.50;;;7.50;99.90;;;;;;5033623;28;20559;-70
2023/05/25 03:37:42;;;;;;;3.67;2.00;;;7.60;99.90;;;;;;5053764;28;20041;-70
2023/05/25 03:40:08;;;;;;;6.40;2.70;;;7.60;99.90;;;;;;5043082;28;20031;-70
2023/05/25 03:42:34;;;;;;;4.38;2.42;;;7.60;99.90;;;;;;5023545;28;20482;-69
2023/05/25 03:45:00;;;;;;;4.50;2.40;;;7.60;99.90;;;;;;5058976;28;20037;-70
2023/05/25 03:47:25;;;;;;;5.00;2.30;;;7.60;99.90;;;;;;5025928;28;20132;-70
2023/05/25 03:49:51;;;;;;;4.40;2.50;;;7.60;99.90;;;;;;5051900;28;20474;-70
2023/05/25 03:52:16;;;;;;;3.50;1.95;;;7.60;99.90;;;;;;5065503;28;20056;-69
2023/05/25 03:54:42;;;;;;;5.40;2.25;;;7.60;99.90;;;;;;5067535;28;20400;-70
2023/05/25 03:57:08;;;;;;;4.82;2.40;;;7.50;99.90;;;;;;5055912;28;20110;-70
2023/05/25 03:59:34;;;;;;;4.57;2.30;;;7.50;99.90;;;;;;5055768;28;20040;-70
2023/05/25 04:02:00;;;;;;;3.78;2.00;;;7.60;99.90;;;;;;5054537;28;20116;-69
2023/05/25 04:04:26;;;;;;;4.25;2.10;;;7.60;99.90;;;;;;5054408;28;20091;-69
2023/05/25 04:06:52;;;;;;;4.90;2.30;;;7.60;99.90;;;;;;5054265;28;20501;-69
2023/05/25 04:09:18;;;;;;;5.22;2.30;;;7.50;99.90;;;;;;5065683;28;20063;-68
2023/05/25 04:11:45;;;;;;;5.07;2.40;;;7.50;99.90;;;;;;5074336;28;20041;-69
2023/05/25 04:14:10;;;;;;;4.60;2.40;;;7.50;99.90;;;;;;5074357;28;20043;-69
2023/05/25 04:16:36;;;;;;;3.30;1.83;;;7.60;99.90;;;;;;5057674;28;20401;-69
2023/05/25 04:19:01;;;;;;;4.80;2.00;;;7.60;99.90;;;;;;5057704;28;20040;-69
2023/05/25 04:21:27;;;;;;;6.00;2.28;;;7.70;99.90;;;;;;5073989;28;20048;-69
2023/05/25 04:23:53;;;;;;;5.20;2.30;;;7.80;99.90;;;;;;5074013;28;20059;-70
2023/05/25 04:26:19;;;;;;;6.50;2.40;;;7.80;99.90;;;;;;5074501;28;20036;-70
2023/05/25 04:28:44;;;;;;;5.75;2.35;;;7.80;99.90;;;;;;5075320;28;20048;-70
2023/05/25 04:31:12;;;;;;;6.80;2.72;;;7.80;99.90;;;;;;5075050;28;20415;-69
2023/05/25 04:33:38;;;;;;;6.40;2.75;;;7.80;99.90;;;;;;5075080;28;20044;-70
2023/05/25 04:36:04;;;;;;;5.03;2.15;;;7.80;99.90;;;;;;5073723;28;20082;-70
2023/05/25 04:38:32;;;;;;;7.80;2.72;;;7.80;99.90;;;;;;5054119;28;20045;-70
2023/05/25 04:40:58;;;;;;;7.22;2.22;;;7.90;99.90;;;;;;5055004;28;20408;-69
2023/05/25 04:43:24;;;;;;;9.05;3.03;;;7.90;99.90;;;;;;5055500;28;20041;-70
2023/05/25 04:45:51;;;;;;;5.93;2.85;;;8.00;99.90;;;;;;5053240;28;20049;-70
2023/05/25 04:48:17;;;;;;;6.18;2.80;;;8.00;99.90;;;;;;5052999;28;20099;-70
2023/05/25 04:50:43;;;;;;;6.60;2.30;;;8.00;99.90;;;;;;5053336;28;20405;-69
2023/05/25 04:53:09;;;;;;;6.25;2.75;;;8.10;99.90;;;;;;5053179;28;20059;-70
2023/05/25 04:55:34;;;;;;;6.97;2.90;;;8.20;99.90;;;;;;5053655;28;20033;-70
2023/05/25 04:58:00;;;;;;;8.45;2.53;;;8.20;99.90;;;;;;5054743;28;20069;-70
2023/05/25 05:00:27;;;;;;;7.78;3.05;;;8.30;99.90;;;;;;5065612;28;20420;-70
2023/05/25 05:02:55;;;;;;;7.97;3.65;;;8.40;99.90;;;;;;5074476;28;20044;-70
2023/05/25 05:05:21;;;;;;;8.10;3.47;;;8.40;99.90;;;;;;5074396;28;20435;-70
2023/05/25 05:07:46;;;;;;;6.10;3.42;;;8.50;99.90;;;;;;5037410;28;20037;-70
2023/05/25 05:10:12;;;;;;;8.85;3.83;;;8.60;99.90;;;;;;5034321;28;20077;-70
2023/05/25 05:12:38;;;;;;;10.05;4.60;;;8.70;99.90;;;;;;5033051;28;20115;-69
2023/05/25 05:15:04;;;;;;;11.07;4.78;;;8.70;99.90;;;;;;5033002;28;20383;-69
2023/05/25 05:17:30;;;;;;;14.40;5.55;;;8.90;99.90;;;;;;5048088;28;20044;-70
2023/05/25 05:19:56;;;;;;;13.65;5.20;;;9.00;99.90;;;;;;5050936;28;20045;-70
2023/05/25 05:22:21;;;;;;;10.95;5.47;;;9.00;99.90;;;;;;5020155;28;20037;-70
2023/05/25 05:24:47;;;;;;;14.63;5.25;;;9.10;99.90;;;;;;5053532;28;20083;-70
2023/05/25 05:27:13;;;;;;;13.10;5.35;;;9.20;99.90;;;;;;5051720;28;20404;-70
2023/05/25 05:29:39;;;;;;;10.90;5.38;;;9.30;99.90;;;;;;5049535;28;20048;-70
2023/05/25 05:32:06;;;;;;;14.63;5.70;;;9.40;99.90;;;;;;5051485;28;20041;-70
2023/05/25 05:34:32;;;;;;;9.50;5.43;;;9.50;99.90;;;;;;5051987;28;20040;-70
2023/05/25 05:36:58;;;;;;;14.32;6.07;;;9.70;99.90;;;;;;5036661;28;20406;-70
2023/05/25 05:39:27;;;;;;;18.33;7.13;;;9.80;99.90;;;;;;5042289;28;20051;-70
2023/05/25 05:41:53;;;;;;;14.98;7.13;;;9.90;99.90;;;;;;5035957;28;20048;-70
2023/05/25 05:44:22;;;;;;;15.00;7.45;;;10.10;99.90;;;;;;5051509;28;20033;-70
2023/05/25 05:46:48;;;;;;;18.25;7.63;;;10.30;99.90;;;;;;5051691;28;20049;-71
2023/05/25 05:49:14;;;;;;;19.83;7.95;;;10.50;99.90;;;;;;5051300;28;20511;-70
2023/05/25 05:51:39;;;;;;;15.77;7.15;;;10.50;99.90;;;;;;5048257;28;20095;-70
2023/05/25 05:54:05;;;;;;;16.42;8.07;;;10.60;99.90;;;;;;5052648;28;20402;-71
2023/05/25 05:56:31;;;;;;;14.77;6.90;;;10.80;99.90;;;;;;5052419;28;20043;-70
2023/05/25 05:58:57;;;;;;;17.20;6.72;;;10.80;99.90;;;;;;5053402;28;20047;-70
2023/05/25 06:01:25;;;;;;;17.60;7.68;;;10.90;99.90;;;;;;5052123;28;20091;-71
2023/05/25 06:03:54;;;;;;;17.05;7.63;;;11.00;99.90;;;;;;5034303;28;20045;-70
2023/05/25 06:06:20;;;;;;;16.02;6.18;;;11.20;99.90;;;;;;5051139;28;20053;-70
2023/05/25 06:08:46;;;;;;;15.82;6.38;;;11.20;99.90;;;;;;5052562;28;20053;-70
2023/05/25 06:11:12;;;;;;;15.90;6.30;;;11.40;99.90;;;;;;5053149;28;20059;-71
2023/05/25 06:13:37;;;;;;;18.67;6.78;;;11.50;99.90;;;;;;5053224;28;20116;-71
2023/05/25 06:16:04;;;;;;;10.85;5.40;;;11.50;99.90;;;;;;5051599;28;20371;-70
2023/05/25 06:18:29;;;;;;;18.05;5.68;;;11.60;99.90;;;;;;5048871;28;20072;-70
2023/05/25 06:20:55;;;;;;;13.20;4.68;;;11.80;99.90;;;;;;5030706;28;20469;-70
2023/05/25 06:23:20;;;;;;;11.95;4.75;;;11.90;99.90;;;;;;5038168;28;20501;-70
2023/05/25 06:25:46;;;;;;;13.15;4.85;;;12.10;99.90;;;;;;5036346;28;20068;-70
2023/05/25 06:28:12;;;;;;;12.70;4.22;;;12.10;99.90;;;;;;5051300;28;20106;-70
2023/05/25 06:30:38;;;;;;;11.68;3.92;;;12.20;99.90;;;;;;5051022;28;20037;-70
2023/05/25 06:33:03;;;;;;;13.93;4.45;;;12.30;99.90;;;;;;5051349;28;20052;-70
2023/05/25 06:35:29;;;;;;;13.88;4.20;;;12.40;99.90;;;;;;5046533;28;20151;-70
2023/05/25 06:37:55;;;;;;;13.77;4.13;;;12.60;99.90;;;;;;5040474;28;20502;-70
2023/05/25 06:40:21;;;;;;;14.48;4.28;;;12.60;99.90;;;;;;5047842;28;20114;-70
2023/05/25 06:42:46;;;;;;;11.18;3.42;;;12.70;99.90;;;;;;5046866;28;20104;-69
2023/05/25 06:45:12;;;;;;;11.23;3.60;;;12.80;99.90;;;;;;5034593;28;20045;-71
2023/05/25 06:47:38;;;;;;;15.18;3.67;;;12.80;99.90;;;;;;5030858;28;20049;-70
2023/05/25 06:50:05;;;;;;;15.00;4.18;;;12.80;99.90;;;;;;5047191;28;20041;-70
2023/05/25 06:52:30;;;;;;;14.75;3.65;;;12.80;99.90;;;;;;5040588;28;20049;-70
2023/05/25 06:54:57;;;;;;;11.52;3.17;;;12.70;99.90;;;;;;5044117;28;20056;-70
2023/05/25 06:57:23;;;;;;;12.73;3.03;;;12.70;99.90;;;;;;5052319;28;20401;-70
2023/05/25 06:59:49;;;;;;;15.38;3.92;;;12.70;99.90;;;;;;5051522;28;20071;-75
2023/05/25 07:02:14;;;;;;;13.75;3.55;;;12.70;99.90;;;;;;5034079;28;20045;-70
2023/05/25 07:04:40;;;;;;;14.40;3.33;;;12.70;99.90;;;;;;5050167;28;20079;-71
2023/05/25 07:07:08;;;;;;;17.98;3.70;;;12.80;99.90;;;;;;5051019;28;20483;-71
2023/05/25 07:09:34;;;;;;;16.63;3.67;;;12.70;99.90;;;;;;5042158;28;20128;-71
2023/05/25 07:12:00;;;;;;;16.40;3.72;;;12.80;99.90;;;;;;5041125;28;20129;-71
2023/05/25 07:14:25;;;;;;;14.30;4.07;;;12.90;99.90;;;;;;5062955;28;20075;-70
2023/05/25 07:16:51;;;;;;;16.58;3.90;;;13.00;99.90;;;;;;5055251;28;20037;-71
2023/05/25 07:19:17;;;;;;;17.50;3.67;;;13.10;99.90;;;;;;5071866;28;20390;-72
2023/05/25 07:21:42;;;;;;;16.38;4.00;;;13.30;99.90;;;;;;5054598;28;20071;-71
2023/05/25 07:24:08;;;;;;;16.65;3.25;;;13.50;99.90;;;;;;5035303;28;20037;-72
2023/05/25 07:26:35;;;;;;;15.43;3.92;;;13.60;99.90;;;;;;5069987;28;20049;-71
2023/05/25 07:29:01;;;;;;;13.23;3.10;;;13.60;99.90;;;;;;5056252;28;20041;-71
2023/05/25 07:31:26;;;;;;;17.50;4.45;;;13.70;99.90;;;;;;5051818;28;20041;-72
2023/05/25 07:33:54;;;;;;;18.33;3.80;;;13.80;99.90;;;;;;5054546;28;20049;-71
2023/05/25 07:36:19;;;;;;;21.05;4.32;;;13.80;99.90;;;;;;5050272;28;20485;-71
2023/05/25 07:38:46;;;;;;;15.60;3.67;;;13.70;99.90;;;;;;5037409;28;20029;-71
2023/05/25 07:41:12;;;;;;;16.05;4.60;;;13.70;99.90;;;;;;5051262;28;20048;-72
2023/05/25 07:43:38;;;;;;;14.88;3.53;;;13.60;99.90;;;;;;5054172;28;20049;-71
2023/05/25 07:46:04;;;;;;;16.00;4.45;;;13.80;99.90;;;;;;5054961;28;20407;-71
2023/05/25 07:48:30;;;;;;;19.67;3.97;;;13.90;99.90;;;;;;5056161;28;20468;-71
2023/05/25 07:50:56;;;;;;;12.93;2.97;;;14.00;99.90;;;;;;5071208;28;20082;-71
2023/05/25 07:53:22;;;;;;;15.25;4.60;;;14.10;99.90;;;;;;5053835;28;20136;-70
2023/05/25 07:55:47;;;;;;;13.23;3.63;;;14.20;99.90;;;;;;5051812;28;20439;-71
2023/05/25 07:58:13;;;;;;;16.77;3.55;;;14.20;99.90;;;;;;5036159;28;20119;-70
2023/05/25 08:00:38;;;;;;;17.80;3.63;;;14.30;99.90;;;;;;5047293;28;20425;-71
2023/05/25 08:03:04;;;;;;;20.10;5.03;;;14.40;99.90;;;;;;5041660;28;20485;-71
2023/05/25 08:05:30;;;;;;;16.75;3.50;;;14.50;99.90;;;;;;5041709;28;20040;-71
2023/05/25 08:07:55;;;;;;;15.95;4.32;;;14.70;99.90;;;;;;5054341;28;20167;-71
2023/05/25 08:10:22;;;;;;;18.05;3.53;;;14.80;99.90;;;;;;5053929;28;20374;-71
2023/05/25 08:12:48;;;;;;;18.15;3.60;;;14.90;99.90;;;;;;5050514;28;20048;-71
2023/05/25 08:15:14;;;;;;;19.20;4.30;;;15.00;99.90;;;;;;5054118;28;20037;-70
2023/05/25 08:17:40;;;;;;;18.42;4.65;;;15.10;99.90;;;;;;5052579;28;20044;-70
2023/05/25 08:20:07;;;;;;;17.15;4.32;;;15.20;99.90;;;;;;5054119;28;20045;-71
2023/05/25 08:22:33;;;;;;;19.92;4.30;;;15.40;99.90;;;;;;5053900;28;20504;-72
2023/05/25 08:24:59;;;;;;;17.20;4.13;;;15.30;99.90;;;;;;5053930;28;20564;-71
2023/05/25 08:27:25;;;;;;;15.00;4.20;;;15.20;99.90;;;;;;5053957;28;20136;-71
2023/05/25 08:29:51;;;;;;;18.30;4.47;;;15.00;99.90;;;;;;5055300;28;20481;-71
2023/05/25 08:32:16;;;;;;;17.98;3.92;;;14.90;99.90;;;;;;5055177;28;20123;-71
2023/05/25 08:34:42;;;;;;;19.08;3.78;;;14.80;99.90;;;;;;5052551;28;20041;-71
2023/05/25 08:37:07;;;;;;;18.80;4.57;;;14.70;99.90;;;;;;5052699;28;20044;-71
2023/05/25 08:39:33;;;;;;;13.98;3.88;;;14.60;99.90;;;;;;5051944;28;20090;-71
2023/05/25 08:42:01;;;;;;;19.85;3.72;;;14.70;99.90;;;;;;5053596;28;20041;-71
2023/05/25 08:44:28;;;;;;;17.80;3.85;;;14.90;99.90;;;;;;5052195;28;20501;-71
2023/05/25 08:46:55;;;;;;;20.67;3.88;;;15.10;99.90;;;;;;5053605;28;20120;-71
2023/05/25 08:49:22;;;;;;;18.70;4.05;;;15.00;99.90;;;;;;5048529;28;20394;-70
2023/05/25 08:51:53;;;;;;;19.58;4.03;;;15.00;99.90;;;;;;5034543;28;20048;-70
2023/05/25 08:54:34;;;;;;;24.95;4.53;;;15.10;99.90;;;;;;5033476;28;20049;-71
2023/05/25 08:57:24;;;;;;;16.15;3.45;;;15.20;99.90;;;;;;5034929;28;20034;-70
2023/05/25 08:59:57;;;;;;;16.98;4.00;;;15.30;99.90;;;;;;5040894;28;20548;-70
2023/05/25 09:02:33;;;;;;;17.35;4.03;;;15.30;99.90;;;;;;5054605;28;20048;-70
2023/05/25 09:05:00;;;;;;;19.40;4.63;;;15.30;99.90;;;;;;5053193;28;20102;-70
2023/05/25 09:07:28;;;;;;;19.63;4.30;;;15.30;99.90;;;;;;5054662;28;20120;-71
2023/05/25 09:09:54;;;;;;;16.83;3.47;;;15.40;99.90;;;;;;5051874;28;20115;-71
2023/05/25 09:12:22;;;;;;;18.70;4.00;;;15.30;99.90;;;;;;5053584;28;20048;-70
2023/05/25 09:14:48;;;;;;;20.77;4.40;;;15.20;99.90;;;;;;5069687;28;20397;-70
2023/05/25 09:17:15;;;;;;;24.45;4.68;;;15.20;99.90;;;;;;5052967;28;20044;-71
2023/05/25 09:19:41;;;;;;;17.33;3.45;;;15.20;99.90;;;;;;5051811;28;20090;-70
2023/05/25 09:22:09;;;;;;;19.95;4.10;;;15.20;99.90;;;;;;5063600;28;20050;-70
2023/05/25 09:24:35;;;;;;;22.13;5.05;;;15.20;99.90;;;;;;5034303;28;20068;-70
2023/05/25 09:27:02;;;;;;;17.77;4.38;;;15.10;99.90;;;;;;5034241;28;20045;-71
2023/05/25 09:29:28;;;;;;;19.45;3.90;;;15.30;99.90;;;;;;5046364;28;20123;-71
2023/05/25 09:31:55;;;;;;;20.23;4.30;;;15.40;99.90;;;;;;5052761;28;20075;-71
2023/05/25 09:34:21;;;;;;;18.02;3.40;;;15.40;99.90;;;;;;5068901;28;20049;-71
2023/05/25 09:36:47;;;;;;;25.17;4.30;;;15.40;99.90;;;;;;5051578;28;20059;-72
2023/05/25 09:39:12;;;;;;;19.48;3.83;;;15.50;99.90;;;;;;5052572;28;20405;-71
2023/05/25 09:41:42;;;;;;;19.83;4.70;;;15.50;99.90;;;;;;5052603;28;20045;-72
2023/05/25 09:44:08;;;;;;;16.50;3.95;;;15.50;99.90;;;;;;5052495;28;20120;-72
2023/05/25 09:46:37;;;;;;;19.50;4.32;;;15.40;99.90;;;;;;5049311;28;20041;-71
2023/05/25 09:49:07;;;;;;;22.35;4.25;;;15.30;99.90;;;;;;5052603;28;20044;-72
2023/05/25 09:51:33;;;;;;;19.23;4.35;;;15.40;99.90;;;;;;5052245;28;20033;-72
2023/05/25 09:54:00;;;;;;;19.23;4.50;;;15.60;99.90;;;;;;5052568;28;20390;-72
2023/05/25 09:56:27;;;;;;;16.73;3.78;;;15.70;99.90;;;;;;5052496;28;20528;-72
2023/05/25 09:58:53;;;;;;;17.67;3.72;;;15.80;99.90;;;;;;5051280;28;20040;-72
2023/05/25 10:01:18;;;;;;;15.02;4.07;;;15.70;99.90;;;;;;5052237;28;20469;-72
2023/05/25 10:03:49;;;;;;;18.05;4.28;;;15.70;99.90;;;;;;5049393;28;20528;-72
2023/05/25 10:06:15;;;;;;;15.90;3.63;;;15.90;99.90;;;;;;5052058;28;20045;-72
2023/05/25 10:08:44;;;;;;;20.73;3.95;;;15.70;99.90;;;;;;5037907;28;20108;-71
2023/05/25 10:11:13;;;;;;;15.63;3.85;;;15.70;99.90;;;;;;5048187;28;20489;-71
2023/05/25 10:13:39;;;;;;;19.33;3.88;;;15.60;99.90;;;;;;5048963;28;20048;-71
2023/05/25 10:16:08;;;;;;;12.93;3.45;;;15.60;99.90;;;;;;5048041;28;20044;-72
2023/05/25 10:18:37;;;;;;;15.80;3.53;;;15.60;99.90;;;;;;5032906;28;20130;-71
2023/05/25 10:21:04;;;;;;;14.30;3.28;;;15.80;99.90;;;;;;5015927;28;20037;-73
2023/05/25 10:23:40;;;;;;;14.98;5.05;;;16.00;99.90;;;;;;5050529;28;20044;-78
2023/05/25 10:26:07;;;;;;;17.02;4.03;;;16.10;99.90;;;;;;5052127;28;20045;-76
2023/05/25 10:28:38;;;;;;;18.20;4.20;;;16.30;99.90;;;;;;5049713;28;20041;-72
2023/05/25 10:31:05;;;;;;;16.05;3.63;;;16.30;99.90;;;;;;5060311;28;20037;-72
2023/05/25 10:33:32;;;;;;;13.65;3.58;;;16.20;99.90;;;;;;5033596;28;20501;-72
2023/05/25 10:35:58;;;;;;;13.90;3.58;;;16.20;99.90;;;;;;5051301;28;20037;-71
2023/05/25 10:38:30;;;;;;;16.27;3.30;;;16.30;99.90;;;;;;5051690;28;20143;-72
2023/05/25 10:40:58;;;;;;;19.13;4.50;;;16.40;99.90;;;;;;5050771;28;20040;-72
2023/05/25 10:43:25;;;;;;;23.40;4.75;;;16.30;99.90;;;;;;5050192;28;20497;-72
2023/05/25 10:45:50;;;;;;;19.42;4.82;;;16.40;99.90;;;;;;5047601;28;20060;-72
2023/05/25 10:48:16;;;;;;;17.63;4.28;;;16.60;99.90;;;;;;5038314;28;20497;-72
2023/05/25 10:50:49;;;;;;;18.02;4.30;;;16.70;99.90;;;;;;5056860;28;20036;-72
2023/05/25 10:53:15;;;;;;;15.27;4.03;;;16.70;99.90;;;;;;5053007;28;20132;-72
2023/05/25 10:55:53;;;;;;;18.05;3.83;;;16.60;99.90;;;;;;5041622;28;20029;-72
2023/05/25 10:58:22;;;;;;;20.75;3.97;;;16.40;99.90;;;;;;5059618;28;20381;-72
2023/05/25 11:01:08;;;;;;;15.88;4.45;;;16.30;99.90;;;;;;5066818;28;20128;-72
2023/05/25 11:03:42;;;;;;;17.50;4.15;;;16.30;99.90;;;;;;5052218;28;20044;-72
2023/05/25 11:06:12;;;;;;;15.63;4.10;;;16.40;99.90;;;;;;5067395;28;20397;-72
2023/05/25 11:08:53;;;;;;;22.77;3.92;;;16.50;99.90;;;;;;5056760;28;20049;-72
2023/05/25 11:11:19;;;;;;;18.80;4.13;;;16.50;99.90;;;;;;5065555;28;20069;-72
2023/05/25 11:13:54;;;;;;;21.65;4.43;;;16.50;99.90;;;;;;5061964;28;20072;-72
2023/05/25 11:16:36;;;;;;;16.33;3.50;;;16.70;99.90;;;;;;5051388;28;20040;-72
2023/05/25 11:19:02;;;;;;;15.10;3.95;;;16.90;99.90;;;;;;5036821;28;20033;-72
2023/05/25 11:21:29;;;;;;;14.93;3.72;;;16.70;99.90;;;;;;5050716;28;20497;-72
2023/05/25 11:24:03;;;;;;;20.65;4.70;;;16.70;99.90;;;;;;5054414;28;20076;-72
2023/05/25 11:26:29;;;;;;;15.93;4.30;;;16.60;99.90;;;;;;5055741;28;20037;-72
2023/05/25 11:28:57;;;;;;;15.27;4.00;;;16.50;99.90;;;;;;5054383;28;20093;-72
2023/05/25 11:31:33;;;;;;;22.20;5.20;;;16.70;99.90;;;;;;5046769;28;20049;-72
2023/05/25 11:34:03;;;;;;;19.27;5.20;;;16.80;99.90;;;;;;5034696;28;20045;-72
2023/05/25 11:36:32;;;;;;;16.75;4.03;;;16.60;99.90;;;;;;5054915;28;20044;-72
2023/05/25 11:39:00;;;;;;;20.02;4.55;;;16.40;99.90;;;;;;5044089;28;20069;-72
2023/05/25 11:41:26;;;;;;;19.58;4.18;;;16.30;99.90;;;;;;5051014;28;20112;-72
2023/05/25 11:43:52;;;;;;;20.08;4.45;;;16.30;99.90;;;;;;5034826;28;20510;-71
2023/05/25 11:46:20;;;;;;;20.80;5.53;;;16.20;99.90;;;;;;5034705;28;20573;-72
2023/05/25 11:48:51;;;;;;;18.15;4.50;;;16.10;99.90;;;;;;5048194;28;20044;-72
2023/05/25 11:51:18;;;;;;;23.95;4.78;;;16.20;99.90;;;;;;5051552;28;20056;-72
2023/05/25 11:53:44;;;;;;;22.75;5.45;;;16.50;99.90;;;;;;5050492;28;20080;-72
2023/05/25 11:56:13;;;;;;;19.52;4.60;;;16.70;99.90;;;;;;5034069;28;20045;-72
2023/05/25 11:58:40;;;;;;;20.30;4.80;;;16.60;99.90;;;;;;5050456;28;20624;-72
2023/05/25 12:01:19;;;;;;;18.70;4.60;;;16.60;99.90;;;;;;5044153;28;20045;-72
2023/05/25 12:03:46;;;;;;;25.77;5.00;;;16.50;99.90;;;;;;5054672;28;20382;-72
2023/05/25 12:06:30;;;;;;;18.80;4.30;;;16.50;99.90;;;;;;5047040;28;20371;-72
2023/05/25 12:08:56;;;;;;;20.77;4.15;;;16.50;99.90;;;;;;5034071;28;20124;-72
2023/05/25 12:11:31;;;;;;;20.70;5.38;;;16.40;99.90;;;;;;5017960;28;20045;-73
2023/05/25 12:13:56;;;;;;;15.77;3.88;;;16.60;99.90;;;;;;5040813;28;20048;-72
2023/05/25 12:16:23;;;;;;;19.58;4.78;;;16.60;99.90;;;;;;5055129;28;20032;-72
2023/05/25 12:18:50;;;;;;;19.05;4.57;;;16.40;99.90;;;;;;5055603;28;20032;-72
2023/05/25 12:21:16;;;;;;;20.85;5.25;;;16.70;99.90;;;;;;5052062;28;20126;-73
2023/05/25 12:23:41;;;;;;;16.30;3.80;;;16.70;99.90;;;;;;5051686;28;20481;-72
2023/05/25 12:26:12;;;;;;;15.13;3.15;;;16.80;99.90;;;;;;5054424;28;20087;-72
2023/05/25 12:28:38;;;;;;;16.77;3.58;;;16.90;99.90;;;;;;5050751;28;20481;-72
2023/05/25 12:31:27;;;;;;;21.45;4.53;;;16.90;99.90;;;;;;5033892;28;20045;-72
2023/05/25 12:34:02;;;;;;;19.45;5.25;;;16.60;99.90;;;;;;5048301;28;20072;-72
2023/05/25 12:36:45;;;;;;;17.23;3.85;;;16.50;99.90;;;;;;5053697;28;20041;-72
2023/05/25 12:39:13;;;;;;;21.98;4.20;;;16.60;99.90;;;;;;5051193;28;20128;-72
2023/05/25 12:41:43;;;;;;;16.30;3.55;;;16.50;99.90;;;;;;5053604;28;20044;-73
2023/05/25 12:44:25;;;;;;;18.73;4.25;;;16.40;99.90;;;;;;5031188;28;20131;-72
2023/05/25 12:46:53;;;;;;;16.30;3.05;;;16.20;99.90;;;;;;5053783;28;20048;-72